Terminal Aerodrome Forecast
Issued by NWS

Home | Current Version | Previous Version | Text Only | Print | Product List | Glossary On
Versions: 1 2 3 4 5 6 7 8 9 10 11 12 13 14 15 16 17 18 19 20
494
FTUS41 KGYX 281901 AAA
TAFHIE
TAF AMD
KHIE 281901Z 2819/2918 29005KT P6SM BKN035 OVC060
     FM282200 VRB03KT 5SM -SHRA BR OVC015
     FM291300 31005KT P6SM OVC025=

USA.gov is the U.S. government's official web portal to all federal, state and local government web resources and services.